sensor_id;sensor_type;location;lat;lon;timestamp;pressure;altitude;pressure_sealevel;temperature;humidity
54666;BME280;40566;50.006;36.180;2023-04-27T00:01:50;99224.13;;;12.96;53.13
54666;BME280;40566;50.006;36.180;2023-04-27T00:06:50;99222.81;;;12.87;53.47
54666;BME280;40566;50.006;36.180;2023-04-27T00:11:51;99220.47;;;12.81;53.40
54666;BME280;40566;50.006;36.180;2023-04-27T00:16:52;99216.44;;;12.76;53.47
54666;BME280;40566;50.006;36.180;2023-04-27T00:21:52;99224.47;;;12.69;53.93
54666;BME280;40566;50.006;36.180;2023-04-27T00:26:53;99221.25;;;12.64;54.06
54666;BME280;40566;50.006;36.180;2023-04-27T00:31:54;99228.25;;;12.62;54.23
54666;BME280;40566;50.006;36.180;2023-04-27T00:36:56;99215.22;;;12.64;54.57
54666;BME280;40566;50.006;36.180;2023-04-27T00:41:56;99226.72;;;12.58;54.79
54666;BME280;40566;50.006;36.180;2023-04-27T00:46:57;99225.84;;;12.58;54.90
54666;BME280;40566;50.006;36.180;2023-04-27T00:51:58;99225.44;;;12.48;55.35
54666;BME280;40566;50.006;36.180;2023-04-27T00:56:59;99224.78;;;12.43;55.64
54666;BME280;40566;50.006;36.180;2023-04-27T01:02:00;99218.13;;;12.37;56.03
54666;BME280;40566;50.006;36.180;2023-04-27T01:07:01;99218.31;;;12.33;56.17
54666;BME280;40566;50.006;36.180;2023-04-27T01:12:02;99216.00;;;12.26;56.53
54666;BME280;40566;50.006;36.180;2023-04-27T01:17:04;99220.31;;;12.26;56.60
54666;BME280;40566;50.006;36.180;2023-04-27T01:22:04;99211.06;;;12.20;56.96
54666;BME280;40566;50.006;36.180;2023-04-27T01:27:06;99214.00;;;12.13;57.09
54666;BME280;40566;50.006;36.180;2023-04-27T01:32:06;99202.13;;;12.07;57.27
54666;BME280;40566;50.006;36.180;2023-04-27T01:37:07;99204.84;;;12.04;57.23
54666;BME280;40566;50.006;36.180;2023-04-27T01:42:07;99200.75;;;11.98;57.33
54666;BME280;40566;50.006;36.180;2023-04-27T01:47:08;99201.09;;;11.90;57.45
54666;BME280;40566;50.006;36.180;2023-04-27T01:52:09;99197.81;;;11.85;57.66
54666;BME280;40566;50.006;36.180;2023-04-27T01:57:09;99196.22;;;11.83;57.86
54666;BME280;40566;50.006;36.180;2023-04-27T02:02:10;99191.03;;;11.83;58.05
54666;BME280;40566;50.006;36.180;2023-04-27T02:07:10;99181.50;;;11.83;58.38
54666;BME280;40566;50.006;36.180;2023-04-27T02:12:11;99180.47;;;11.87;58.54
54666;BME280;40566;50.006;36.180;2023-04-27T02:17:12;99191.66;;;11.88;58.82
54666;BME280;40566;50.006;36.180;2023-04-27T02:22:12;99194.31;;;11.86;58.79
54666;BME280;40566;50.006;36.180;2023-04-27T02:27:13;99195.25;;;11.85;58.84
54666;BME280;40566;50.006;36.180;2023-04-27T02:32:13;99183.25;;;11.83;59.05
54666;BME280;40566;50.006;36.180;2023-04-27T02:37:14;99192.66;;;11.85;59.09
54666;BME280;40566;50.006;36.180;2023-04-27T02:42:14;99198.00;;;11.81;59.00
54666;BME280;40566;50.006;36.180;2023-04-27T02:47:15;99184.16;;;11.82;59.17
54666;BME280;40566;50.006;36.180;2023-04-27T02:52:16;99184.09;;;11.83;59.48
54666;BME280;40566;50.006;36.180;2023-04-27T02:57:16;99177.75;;;11.90;59.49
54666;BME280;40566;50.006;36.180;2023-04-27T03:02:17;99182.72;;;11.97;59.44
54666;BME280;40566;50.006;36.180;2023-04-27T03:07:18;99182.56;;;12.00;59.20
54666;BME280;40566;50.006;36.180;2023-04-27T03:12:18;99180.53;;;12.06;59.39
54666;BME280;40566;50.006;36.180;2023-04-27T03:17:19;99185.41;;;12.14;59.14
54666;BME280;40566;50.006;36.180;2023-04-27T03:22:20;99188.59;;;12.21;59.21
54666;BME280;40566;50.006;36.180;2023-04-27T03:27:20;99193.34;;;12.30;59.34
54666;BME280;40566;50.006;36.180;2023-04-27T03:32:21;99189.31;;;12.43;59.17
54666;BME280;40566;50.006;36.180;2023-04-27T03:37:21;99197.69;;;12.50;59.01
54666;BME280;40566;50.006;36.180;2023-04-27T03:42:22;99198.78;;;12.63;58.83
54666;BME280;40566;50.006;36.180;2023-04-27T03:47:22;99203.16;;;12.82;58.55
54666;BME280;40566;50.006;36.180;2023-04-27T03:52:23;99207.50;;;13.00;58.34
54666;BME280;40566;50.006;36.180;2023-04-27T03:57:24;99206.09;;;13.12;58.28
54666;BME280;40566;50.006;36.180;2023-04-27T04:02:25;99222.78;;;13.25;57.88
54666;BME280;40566;50.006;36.180;2023-04-27T04:07:25;99204.94;;;13.37;57.72
54666;BME280;40566;50.006;36.180;2023-04-27T04:12:26;99206.03;;;13.50;57.57
54666;BME280;40566;50.006;36.180;2023-04-27T04:17:27;99213.31;;;13.61;57.75
54666;BME280;40566;50.006;36.180;2023-04-27T04:22:27;99206.75;;;13.71;57.25
54666;BME280;40566;50.006;36.180;2023-04-27T04:27:28;99201.50;;;13.73;57.53
54666;BME280;40566;50.006;36.180;2023-04-27T04:32:28;99200.03;;;13.84;57.48
54666;BME280;40566;50.006;36.180;2023-04-27T04:37:29;99198.97;;;13.88;57.43
54666;BME280;40566;50.006;36.180;2023-04-27T04:42:31;99184.34;;;13.86;57.25
54666;BME280;40566;50.006;36.180;2023-04-27T04:47:32;99182.13;;;13.96;57.18
54666;BME280;40566;50.006;36.180;2023-04-27T04:52:33;99185.16;;;14.04;57.40
54666;BME280;40566;50.006;36.180;2023-04-27T04:57:33;99183.63;;;14.17;57.27
54666;BME280;40566;50.006;36.180;2023-04-27T05:02:35;99177.13;;;14.26;57.13
54666;BME280;40566;50.006;36.180;2023-04-27T05:07:35;99177.56;;;14.34;57.07
54666;BME280;40566;50.006;36.180;2023-04-27T05:12:36;99168.59;;;14.40;56.86
54666;BME280;40566;50.006;36.180;2023-04-27T05:17:37;99175.72;;;14.52;56.95
54666;BME280;40566;50.006;36.180;2023-04-27T05:22:37;99170.09;;;14.61;56.78
54666;BME280;40566;50.006;36.180;2023-04-27T05:27:38;99166.97;;;14.71;56.84
54666;BME280;40566;50.006;36.180;2023-04-27T05:32:40;99160.91;;;14.86;56.71
54666;BME280;40566;50.006;36.180;2023-04-27T05:37:41;99147.06;;;15.01;56.46
54666;BME280;40566;50.006;36.180;2023-04-27T05:42:41;99144.69;;;15.13;56.13
54666;BME280;40566;50.006;36.180;2023-04-27T05:47:42;99148.28;;;15.26;55.89
54666;BME280;40566;50.006;36.180;2023-04-27T05:52:42;99135.03;;;15.45;55.73
54666;BME280;40566;50.006;36.180;2023-04-27T05:57:46;99123.38;;;15.66;54.97
54666;BME280;40566;50.006;36.180;2023-04-27T06:02:47;99128.34;;;15.85;54.61
54666;BME280;40566;50.006;36.180;2023-04-27T06:07:47;99122.97;;;16.03;54.22
54666;BME280;40566;50.006;36.180;2023-04-27T06:12:48;99110.38;;;16.24;53.82
54666;BME280;40566;50.006;36.180;2023-04-27T06:17:48;99102.38;;;16.41;52.98
54666;BME280;40566;50.006;36.180;2023-04-27T06:22:49;99111.34;;;16.64;52.46
54666;BME280;40566;50.006;36.180;2023-04-27T06:27:50;99106.91;;;16.94;52.12
54666;BME280;40566;50.006;36.180;2023-04-27T06:32:51;99100.94;;;17.19;51.39
54666;BME280;40566;50.006;36.180;2023-04-27T06:37:51;99111.53;;;17.43;50.83
54666;BME280;40566;50.006;36.180;2023-04-27T06:42:52;99106.06;;;17.73;50.77
54666;BME280;40566;50.006;36.180;2023-04-27T06:47:53;99102.22;;;17.92;49.90
54666;BME280;40566;50.006;36.180;2023-04-27T06:52:53;99105.97;;;18.13;49.82
54666;BME280;40566;50.006;36.180;2023-04-27T06:57:55;99112.31;;;18.35;49.29
54666;BME280;40566;50.006;36.180;2023-04-27T07:02:56;99098.13;;;18.50;48.87
54666;BME280;40566;50.006;36.180;2023-04-27T07:07:57;99104.06;;;18.65;48.89
54666;BME280;40566;50.006;36.180;2023-04-27T07:12:57;99094.81;;;18.85;48.23
54666;BME280;40566;50.006;36.180;2023-04-27T07:17:58;99091.78;;;19.02;48.16
54666;BME280;40566;50.006;36.180;2023-04-27T07:22:58;99086.75;;;19.24;48.11
54666;BME280;40566;50.006;36.180;2023-04-27T07:27:59;99065.47;;;19.51;47.60
54666;BME280;40566;50.006;36.180;2023-04-27T07:33:00;99061.56;;;19.68;47.48
54666;BME280;40566;50.006;36.180;2023-04-27T07:38:00;99064.56;;;19.63;47.39
54666;BME280;40566;50.006;36.180;2023-04-27T07:43:02;99060.75;;;19.67;47.85
54666;BME280;40566;50.006;36.180;2023-04-27T07:48:04;99056.97;;;19.71;47.26
54666;BME280;40566;50.006;36.180;2023-04-27T07:53:04;99055.25;;;19.70;47.26
54666;BME280;40566;50.006;36.180;2023-04-27T07:58:05;99054.81;;;19.76;47.11
54666;BME280;40566;50.006;36.180;2023-04-27T08:03:06;99064.50;;;19.87;47.10
54666;BME280;40566;50.006;36.180;2023-04-27T08:08:07;99052.91;;;20.01;46.70
54666;BME280;40566;50.006;36.180;2023-04-27T08:13:08;99055.41;;;20.14;46.40
54666;BME280;40566;50.006;36.180;2023-04-27T08:18:09;99061.13;;;20.30;46.31
54666;BME280;40566;50.006;36.180;2023-04-27T08:23:09;99056.44;;;20.45;46.25
54666;BME280;40566;50.006;36.180;2023-04-27T08:28:10;99056.66;;;20.65;45.73
54666;BME280;40566;50.006;36.180;2023-04-27T08:33:10;99059.59;;;20.83;45.48
54666;BME280;40566;50.006;36.180;2023-04-27T08:38:11;99041.09;;;21.26;44.78
54666;BME280;40566;50.006;36.180;2023-04-27T08:43:11;99039.78;;;21.53;44.42
54666;BME280;40566;50.006;36.180;2023-04-27T08:48:12;99035.28;;;21.65;44.41
54666;BME280;40566;50.006;36.180;2023-04-27T08:53:19;99019.13;;;21.27;45.15
54666;BME280;40566;50.006;36.180;2023-04-27T08:58:35;99024.72;;;20.26;46.83
54666;BME280;40566;50.006;36.180;2023-04-27T09:03:36;99043.84;;;19.25;50.01
54666;BME280;40566;50.006;36.180;2023-04-27T09:08:45;99039.91;;;18.47;51.63
54666;BME280;40566;50.006;36.180;2023-04-27T09:13:45;99036.38;;;17.98;53.29
54666;BME280;40566;50.006;36.180;2023-04-27T09:18:46;99016.88;;;18.02;53.99
54666;BME280;40566;50.006;36.180;2023-04-27T09:23:47;99047.69;;;18.35;53.44
54666;BME280;40566;50.006;36.180;2023-04-27T09:28:55;99037.09;;;18.98;52.45
54666;BME280;40566;50.006;36.180;2023-04-27T09:33:58;99038.59;;;20.05;50.80
54666;BME280;40566;50.006;36.180;2023-04-27T09:39:02;99036.41;;;20.44;50.03
54666;BME280;40566;50.006;36.180;2023-04-27T09:44:06;99028.41;;;21.31;49.04
54666;BME280;40566;50.006;36.180;2023-04-27T09:49:07;99023.41;;;22.90;45.70
54666;BME280;40566;50.006;36.180;2023-04-27T09:54:10;99005.56;;;26.02;39.77
54666;BME280;40566;50.006;36.180;2023-04-27T10:10:23;99007.59;;;26.76;37.94
54666;BME280;40566;50.006;36.180;2023-04-27T10:15:25;98999.72;;;26.41;38.70
54666;BME280;40566;50.006;36.180;2023-04-27T10:20:32;98996.00;;;29.96;32.63
54666;BME280;40566;50.006;36.180;2023-04-27T10:25:40;98984.34;;;33.51;28.39
54666;BME280;40566;50.006;36.180;2023-04-27T10:30:44;99000.41;;;33.45;28.68
54666;BME280;40566;50.006;36.180;2023-04-27T10:35:56;98984.03;;;35.94;26.04
54666;BME280;40566;50.006;36.180;2023-04-27T10:41:01;98992.16;;;34.25;28.25
54666;BME280;40566;50.006;36.180;2023-04-27T10:46:10;99001.88;;;34.51;27.65
54666;BME280;40566;50.006;36.180;2023-04-27T10:51:15;98996.44;;;30.94;31.66
54666;BME280;40566;50.006;36.180;2023-04-27T10:56:17;99007.00;;;28.96;33.59
54666;BME280;40566;50.006;36.180;2023-04-27T11:01:27;99001.03;;;28.94;33.50
54666;BME280;40566;50.006;36.180;2023-04-27T11:06:29;98996.09;;;30.82;30.25
54666;BME280;40566;50.006;36.180;2023-04-27T11:11:32;99005.00;;;28.43;33.51
54666;BME280;40566;50.006;36.180;2023-04-27T11:16:33;99006.19;;;26.47;36.49
54666;BME280;40566;50.006;36.180;2023-04-27T11:21:34;98994.44;;;25.30;38.19
54666;BME280;40566;50.006;36.180;2023-04-27T11:26:35;98993.81;;;24.56;39.58
54666;BME280;40566;50.006;36.180;2023-04-27T11:31:45;98985.34;;;24.52;39.62
54666;BME280;40566;50.006;36.180;2023-04-27T11:37:01;98975.84;;;25.48;37.84
54666;BME280;40566;50.006;36.180;2023-04-27T11:42:25;98976.34;;;26.28;36.20
54666;BME280;40566;50.006;36.180;2023-04-27T11:47:29;98956.72;;;25.10;37.93
54666;BME280;40566;50.006;36.180;2023-04-27T11:52:32;98962.69;;;24.22;39.48
54666;BME280;40566;50.006;36.180;2023-04-27T11:57:34;98956.78;;;23.55;40.51
54666;BME280;40566;50.006;36.180;2023-04-27T12:02:35;98958.31;;;23.48;40.48
54666;BME280;40566;50.006;36.180;2023-04-27T12:07:36;98953.69;;;23.60;40.40
54666;BME280;40566;50.006;36.180;2023-04-27T12:12:37;98946.81;;;23.76;39.78
54666;BME280;40566;50.006;36.180;2023-04-27T12:17:41;98945.06;;;23.20;40.73
54666;BME280;40566;50.006;36.180;2023-04-27T12:22:41;98942.78;;;22.58;41.89
54666;BME280;40566;50.006;36.180;2023-04-27T12:27:42;98938.69;;;22.15;42.42
54666;BME280;40566;50.006;36.180;2023-04-27T12:32:46;98932.53;;;21.86;42.97
54666;BME280;40566;50.006;36.180;2023-04-27T12:37:47;98945.63;;;21.56;43.56
54666;BME280;40566;50.006;36.180;2023-04-27T12:42:49;98943.94;;;21.34;43.79
54666;BME280;40566;50.006;36.180;2023-04-27T12:47:49;98932.72;;;21.32;44.30
54666;BME280;40566;50.006;36.180;2023-04-27T12:52:50;98930.72;;;21.15;44.53
54666;BME280;40566;50.006;36.180;2023-04-27T12:57:51;98929.00;;;21.04;45.00
54666;BME280;40566;50.006;36.180;2023-04-27T13:02:52;98922.44;;;20.98;45.42
54666;BME280;40566;50.006;36.180;2023-04-27T13:07:52;98927.06;;;20.85;45.86
54666;BME280;40566;50.006;36.180;2023-04-27T13:12:53;98920.41;;;20.81;46.01
54666;BME280;40566;50.006;36.180;2023-04-27T13:17:53;98933.09;;;20.76;46.16
54666;BME280;40566;50.006;36.180;2023-04-27T13:22:55;98937.78;;;20.72;46.38
54666;BME280;40566;50.006;36.180;2023-04-27T13:27:56;98947.00;;;20.55;46.88
54666;BME280;40566;50.006;36.180;2023-04-27T13:32:57;98924.06;;;20.57;48.51
54666;BME280;40566;50.006;36.180;2023-04-27T13:37:58;98904.13;;;20.55;49.87
54666;BME280;40566;50.006;36.180;2023-04-27T13:42:59;98915.47;;;20.67;50.98
54666;BME280;40566;50.006;36.180;2023-04-27T13:48:00;98908.63;;;20.75;50.42
54666;BME280;40566;50.006;36.180;2023-04-27T13:53:01;98910.84;;;20.59;49.76
54666;BME280;40566;50.006;36.180;2023-04-27T13:58:02;98915.34;;;20.36;49.98
54666;BME280;40566;50.006;36.180;2023-04-27T14:03:03;98919.91;;;20.23;49.41
54666;BME280;40566;50.006;36.180;2023-04-27T14:08:04;98908.97;;;20.06;49.58
54666;BME280;40566;50.006;36.180;2023-04-27T14:13:05;98908.31;;;19.93;49.32
54666;BME280;40566;50.006;36.180;2023-04-27T14:18:06;98915.22;;;19.94;49.58
54666;BME280;40566;50.006;36.180;2023-04-27T14:23:09;98912.13;;;19.89;49.07
54666;BME280;40566;50.006;36.180;2023-04-27T14:28:10;98907.72;;;19.89;48.87
54666;BME280;40566;50.006;36.180;2023-04-27T14:33:11;98907.44;;;19.92;48.37
54666;BME280;40566;50.006;36.180;2023-04-27T14:38:12;98893.78;;;19.89;48.31
54666;BME280;40566;50.006;36.180;2023-04-27T14:43:13;98899.38;;;19.84;48.23
54666;BME280;40566;50.006;36.180;2023-04-27T14:48:13;98894.28;;;19.71;48.43
54666;BME280;40566;50.006;36.180;2023-04-27T14:53:14;98897.22;;;19.67;48.62
54666;BME280;40566;50.006;36.180;2023-04-27T14:58:14;98890.69;;;19.72;48.69
54666;BME280;40566;50.006;36.180;2023-04-27T15:03:15;98882.06;;;19.70;48.85
54666;BME280;40566;50.006;36.180;2023-04-27T15:08:16;98878.13;;;19.65;49.07
54666;BME280;40566;50.006;36.180;2023-04-27T15:13:16;98891.88;;;19.57;49.05
54666;BME280;40566;50.006;36.180;2023-04-27T15:18:17;98900.56;;;19.46;49.27
54666;BME280;40566;50.006;36.180;2023-04-27T15:23:20;98903.19;;;19.35;49.73
54666;BME280;40566;50.006;36.180;2023-04-27T15:28:21;98914.16;;;19.29;50.03
54666;BME280;40566;50.006;36.180;2023-04-27T15:33:21;98916.66;;;19.19;50.54
54666;BME280;40566;50.006;36.180;2023-04-27T15:38:22;98921.06;;;19.07;50.44
54666;BME280;40566;50.006;36.180;2023-04-27T15:43:23;98925.31;;;18.97;50.81
54666;BME280;40566;50.006;36.180;2023-04-27T15:48:23;98922.69;;;18.86;51.17
54666;BME280;40566;50.006;36.180;2023-04-27T15:53:24;98915.38;;;18.78;51.33
54666;BME280;40566;50.006;36.180;2023-04-27T15:58:25;98922.63;;;18.74;51.76
54666;BME280;40566;50.006;36.180;2023-04-27T16:03:26;98928.91;;;18.60;52.23
54666;BME280;40566;50.006;36.180;2023-04-27T16:08:26;98922.44;;;18.53;52.29
54666;BME280;40566;50.006;36.180;2023-04-27T16:13:27;98930.03;;;18.45;52.62
54666;BME280;40566;50.006;36.180;2023-04-27T16:18:27;98922.13;;;18.34;52.82
54666;BME280;40566;50.006;36.180;2023-04-27T16:23:28;98927.81;;;18.28;53.20
54666;BME280;40566;50.006;36.180;2023-04-27T16:28:29;98934.66;;;18.17;53.58
54666;BME280;40566;50.006;36.180;2023-04-27T16:33:29;98936.03;;;18.10;53.61
54666;BME280;40566;50.006;36.180;2023-04-27T16:38:30;98937.84;;;17.97;53.72
54666;BME280;40566;50.006;36.180;2023-04-27T16:43:31;98950.56;;;17.90;53.79
54666;BME280;40566;50.006;36.180;2023-04-27T16:48:32;98960.63;;;17.83;53.97
54666;BME280;40566;50.006;36.180;2023-04-27T16:53:33;98966.47;;;17.74;53.73
54666;BME280;40566;50.006;36.180;2023-04-27T16:58:33;98965.22;;;17.67;53.92
54666;BME280;40566;50.006;36.180;2023-04-27T17:03:35;98978.63;;;17.62;53.99
54666;BME280;40566;50.006;36.180;2023-04-27T17:08:36;98986.06;;;17.56;53.98
54666;BME280;40566;50.006;36.180;2023-04-27T17:13:36;98982.19;;;17.49;53.68
54666;BME280;40566;50.006;36.180;2023-04-27T17:18:38;98980.91;;;17.41;54.10
54666;BME280;40566;50.006;36.180;2023-04-27T17:23:38;98984.91;;;17.34;53.92
54666;BME280;40566;50.006;36.180;2023-04-27T17:28:40;98997.53;;;17.28;53.92
54666;BME280;40566;50.006;36.180;2023-04-27T17:33:41;99001.22;;;17.25;54.01
54666;BME280;40566;50.006;36.180;2023-04-27T17:38:42;99004.66;;;17.25;53.83
54666;BME280;40566;50.006;36.180;2023-04-27T17:43:43;99005.78;;;17.21;53.83
54666;BME280;40566;50.006;36.180;2023-04-27T17:48:44;99009.66;;;17.16;54.08
54666;BME280;40566;50.006;36.180;2023-04-27T17:53:44;98994.72;;;17.05;54.12
54666;BME280;40566;50.006;36.180;2023-04-27T17:58:45;99000.53;;;16.96;54.44
54666;BME280;40566;50.006;36.180;2023-04-27T18:03:46;99000.31;;;16.86;54.47
54666;BME280;40566;50.006;36.180;2023-04-27T18:08:48;98999.00;;;16.79;54.77
54666;BME280;40566;50.006;36.180;2023-04-27T18:13:48;99018.63;;;16.72;54.96
54666;BME280;40566;50.006;36.180;2023-04-27T18:18:49;99022.69;;;16.63;55.13
54666;BME280;40566;50.006;36.180;2023-04-27T18:23:50;99024.09;;;16.54;55.07
54666;BME280;40566;50.006;36.180;2023-04-27T18:28:51;99023.75;;;16.46;55.39
54666;BME280;40566;50.006;36.180;2023-04-27T18:33:51;99027.66;;;16.39;55.35
54666;BME280;40566;50.006;36.180;2023-04-27T18:38:52;99034.16;;;16.33;55.75
54666;BME280;40566;50.006;36.180;2023-04-27T18:43:53;99030.88;;;16.30;55.79
54666;BME280;40566;50.006;36.180;2023-04-27T18:48:53;99031.88;;;16.27;56.00
54666;BME280;40566;50.006;36.180;2023-04-27T18:53:54;99025.09;;;16.24;56.18
54666;BME280;40566;50.006;36.180;2023-04-27T18:58:56;99023.44;;;16.23;56.66
54666;BME280;40566;50.006;36.180;2023-04-27T19:03:57;99026.78;;;16.25;56.36
54666;BME280;40566;50.006;36.180;2023-04-27T19:08:58;99040.75;;;16.24;56.80
54666;BME280;40566;50.006;36.180;2023-04-27T19:13:58;99040.31;;;16.18;56.77
54666;BME280;40566;50.006;36.180;2023-04-27T19:18:59;99041.34;;;16.15;56.96
54666;BME280;40566;50.006;36.180;2023-04-27T19:23:59;99031.91;;;16.13;57.42
54666;BME280;40566;50.006;36.180;2023-04-27T19:29:01;99037.88;;;16.15;57.24
54666;BME280;40566;50.006;36.180;2023-04-27T19:34:02;99045.06;;;16.11;57.79
54666;BME280;40566;50.006;36.180;2023-04-27T19:39:03;99037.44;;;16.08;57.86
54666;BME280;40566;50.006;36.180;2023-04-27T19:44:03;99047.88;;;16.08;58.10
54666;BME280;40566;50.006;36.180;2023-04-27T19:49:04;99057.66;;;16.04;58.26
54666;BME280;40566;50.006;36.180;2023-04-27T19:54:05;99076.56;;;16.08;58.44
54666;BME280;40566;50.006;36.180;2023-04-27T19:59:06;99076.56;;;16.08;58.39
54666;BME280;40566;50.006;36.180;2023-04-27T20:04:06;99072.75;;;15.99;58.62
54666;BME280;40566;50.006;36.180;2023-04-27T20:09:07;99072.13;;;15.96;58.56
54666;BME280;40566;50.006;36.180;2023-04-27T20:14:08;99091.19;;;15.96;58.56
54666;BME280;40566;50.006;36.180;2023-04-27T20:19:09;99097.34;;;15.95;58.80
54666;BME280;40566;50.006;36.180;2023-04-27T20:24:10;99092.41;;;15.91;59.15
54666;BME280;40566;50.006;36.180;2023-04-27T20:29:10;99076.66;;;15.92;60.33
54666;BME280;40566;50.006;36.180;2023-04-27T20:34:11;99064.09;;;15.84;61.03
54666;BME280;40566;50.006;36.180;2023-04-27T20:39:12;99059.69;;;15.85;61.33
54666;BME280;40566;50.006;36.180;2023-04-27T20:44:14;99072.19;;;15.80;61.79
54666;BME280;40566;50.006;36.180;2023-04-27T20:49:15;99077.84;;;15.72;62.72
54666;BME280;40566;50.006;36.180;2023-04-27T20:54:16;99069.69;;;15.78;62.61
54666;BME280;40566;50.006;36.180;2023-04-27T20:59:17;99060.75;;;15.82;62.65
54666;BME280;40566;50.006;36.180;2023-04-27T21:04:17;99077.19;;;15.69;63.47
54666;BME280;40566;50.006;36.180;2023-04-27T21:09:18;99065.06;;;15.67;63.63
54666;BME280;40566;50.006;36.180;2023-04-27T21:14:19;99060.59;;;15.70;64.20
54666;BME280;40566;50.006;36.180;2023-04-27T21:19:19;99069.16;;;15.72;64.65
54666;BME280;40566;50.006;36.180;2023-04-27T21:24:20;99077.19;;;15.69;65.17
54666;BME280;40566;50.006;36.180;2023-04-27T21:29:20;99081.31;;;15.73;65.32
54666;BME280;40566;50.006;36.180;2023-04-27T21:34:21;99083.91;;;15.73;65.21
54666;BME280;40566;50.006;36.180;2023-04-27T21:39:21;99087.63;;;15.69;65.72
54666;BME280;40566;50.006;36.180;2023-04-27T21:44:22;99094.78;;;15.65;66.10
54666;BME280;40566;50.006;36.180;2023-04-27T21:49:23;99096.47;;;15.66;66.11
54666;BME280;40566;50.006;36.180;2023-04-27T21:54:23;99091.25;;;15.66;66.54
54666;BME280;40566;50.006;36.180;2023-04-27T21:59:24;99092.63;;;15.57;66.94
54666;BME280;40566;50.006;36.180;2023-04-27T22:04:24;99095.97;;;15.59;67.00
54666;BME280;40566;50.006;36.180;2023-04-27T22:09:25;99101.38;;;15.56;66.92
54666;BME280;40566;50.006;36.180;2023-04-27T22:14:25;99097.34;;;15.51;67.39
54666;BME280;40566;50.006;36.180;2023-04-27T22:19:26;99095.50;;;15.53;67.44
54666;BME280;40566;50.006;36.180;2023-04-27T22:24:27;99080.41;;;15.58;67.19
54666;BME280;40566;50.006;36.180;2023-04-27T22:29:28;99085.25;;;15.50;67.58
54666;BME280;40566;50.006;36.180;2023-04-27T22:34:29;99092.16;;;15.51;68.27
54666;BME280;40566;50.006;36.180;2023-04-27T22:39:30;99085.81;;;15.55;67.97
54666;BME280;40566;50.006;36.180;2023-04-27T22:44:31;99091.03;;;15.55;68.29
54666;BME280;40566;50.006;36.180;2023-04-27T22:49:32;99097.16;;;15.54;68.44
54666;BME280;40566;50.006;36.180;2023-04-27T22:54:33;99090.28;;;15.53;68.36
54666;BME280;40566;50.006;36.180;2023-04-27T22:59:34;99084.31;;;15.51;68.47
54666;BME280;40566;50.006;36.180;2023-04-27T23:04:35;99095.88;;;15.46;69.05
54666;BME280;40566;50.006;36.180;2023-04-27T23:09:35;99079.56;;;15.43;68.81
54666;BME280;40566;50.006;36.180;2023-04-27T23:14:37;99091.53;;;15.31;69.12
54666;BME280;40566;50.006;36.180;2023-04-27T23:19:39;99090.56;;;15.18;69.12
54666;BME280;40566;50.006;36.180;2023-04-27T23:24:40;99093.78;;;15.07;69.19
54666;BME280;40566;50.006;36.180;2023-04-27T23:29:40;99093.63;;;14.94;69.45
54666;BME280;40566;50.006;36.180;2023-04-27T23:34:41;99094.25;;;14.83;69.74
54666;BME280;40566;50.006;36.180;2023-04-27T23:39:42;99089.47;;;14.76;70.13
54666;BME280;40566;50.006;36.180;2023-04-27T23:44:42;99076.03;;;14.67;70.06
54666;BME280;40566;50.006;36.180;2023-04-27T23:49:43;99078.97;;;14.61;70.08
54666;BME280;40566;50.006;36.180;2023-04-27T23:54:44;99075.16;;;14.51;69.95
54666;BME280;40566;50.006;36.180;2023-04-27T23:59:44;99084.03;;;14.47;69.82
